Time;durP1;ratioP1;P1;durP2;ratioP2;P2;SDS_P1;SDS_P2;PMS_P1;PMS_P2;Temp;Humidity;BMP_temperature;BMP_pressure;BME280_temperature;BME280_humidity;BME280_pressure;Samples;Min_cycle;Max_cycle;Signal;HPM_P1;HPM_P2
2024/02/25 00:01:22;;;;;;;1.33;0.95;;;7.20;99.90;;;;;;5012787;28;20032;-73
2024/02/25 00:03:48;;;;;;;1.48;0.95;;;7.20;99.90;;;;;;5015770;28;20030;-73
2024/02/25 00:06:14;;;;;;;0.80;0.75;;;7.20;99.90;;;;;;5018108;28;20030;-73
2024/02/25 00:08:40;;;;;;;1.13;1.00;;;7.20;99.90;;;;;;5013527;28;20032;-72
2024/02/25 00:11:06;;;;;;;1.70;1.00;;;7.20;99.90;;;;;;5014593;28;20026;-72
2024/02/25 00:13:32;;;;;;;1.35;1.10;;;7.10;99.90;;;;;;5018120;28;20026;-73
2024/02/25 00:15:57;;;;;;;1.67;1.13;;;7.10;99.90;;;;;;5014375;28;20415;-73
2024/02/25 00:18:23;;;;;;;2.05;0.95;;;7.00;99.90;;;;;;5014592;28;20038;-73
2024/02/25 00:20:49;;;;;;;2.00;1.10;;;7.00;99.90;;;;;;5018484;28;20060;-72
2024/02/25 00:23:15;;;;;;;2.13;1.00;;;6.90;99.90;;;;;;5014770;28;20116;-73
2024/02/25 00:25:41;;;;;;;2.85;1.02;;;6.80;99.90;;;;;;5014206;28;20203;-73
2024/02/25 00:28:07;;;;;;;1.38;0.93;;;6.80;99.90;;;;;;5016309;28;20040;-73
2024/02/25 00:30:32;;;;;;;1.52;1.10;;;6.70;99.90;;;;;;5009419;28;20061;-73
2024/02/25 00:32:58;;;;;;;2.03;1.17;;;6.80;99.90;;;;;;5016081;28;20037;-73
2024/02/25 00:35:24;;;;;;;1.00;0.77;;;6.70;99.90;;;;;;5009080;28;20061;-73
2024/02/25 00:37:50;;;;;;;2.00;0.90;;;6.70;99.90;;;;;;5007177;28;20524;-73
2024/02/25 00:40:16;;;;;;;0.70;0.70;;;6.70;99.90;;;;;;5009322;28;20061;-73
2024/02/25 00:42:42;;;;;;;1.35;1.10;;;6.70;99.90;;;;;;5013282;28;20037;-73
2024/02/25 00:45:08;;;;;;;1.65;0.90;;;6.70;99.90;;;;;;5012892;28;20030;-73
2024/02/25 00:47:34;;;;;;;0.88;0.75;;;6.60;99.90;;;;;;5012173;28;20695;-73
2024/02/25 00:50:01;;;;;;;2.78;1.35;;;6.60;99.90;;;;;;5014744;28;20483;-73
2024/02/25 00:52:27;;;;;;;1.23;1.05;;;6.50;99.90;;;;;;5011966;28;20958;-73
2024/02/25 00:54:54;;;;;;;1.67;1.13;;;6.50;99.90;;;;;;5013918;28;20079;-73
2024/02/25 00:57:20;;;;;;;2.42;1.00;;;6.40;99.90;;;;;;5013674;28;20037;-73
2024/02/25 00:59:46;;;;;;;2.08;1.17;;;6.40;99.90;;;;;;5009449;28;20021;-73
2024/02/25 01:02:11;;;;;;;1.98;1.27;;;6.40;99.90;;;;;;5017324;28;20037;-73
2024/02/25 01:04:37;;;;;;;1.77;0.90;;;6.40;99.90;;;;;;5012778;28;20061;-73
2024/02/25 01:07:03;;;;;;;2.60;0.95;;;6.40;99.90;;;;;;5010066;28;20030;-73
2024/02/25 01:09:30;;;;;;;1.50;0.68;;;6.40;99.90;;;;;;5011272;28;20112;-73
2024/02/25 01:11:57;;;;;;;2.85;1.38;;;6.40;99.90;;;;;;5011319;28;20038;-73
2024/02/25 01:14:24;;;;;;;1.55;0.80;;;6.40;99.90;;;;;;5015417;28;20117;-73
2024/02/25 01:16:50;;;;;;;1.88;0.98;;;6.30;99.90;;;;;;5018123;28;20021;-73
2024/02/25 01:19:20;;;;;;;1.75;0.77;;;6.30;99.90;;;;;;5020570;28;20109;-73
2024/02/25 01:21:47;;;;;;;1.73;0.80;;;6.30;99.90;;;;;;5014962;28;20049;-73
2024/02/25 01:24:13;;;;;;;1.55;1.00;;;6.30;99.90;;;;;;5015897;28;20038;-73
2024/02/25 01:26:40;;;;;;;1.45;1.02;;;6.30;99.90;;;;;;5019561;28;20076;-73
2024/02/25 01:29:07;;;;;;;1.80;1.23;;;6.20;99.90;;;;;;5013928;28;20117;-73
2024/02/25 01:31:42;;;;;;;1.35;0.80;;;6.20;99.90;;;;;;5015229;28;20041;-73
2024/02/25 01:34:08;;;;;;;1.17;0.95;;;6.20;99.90;;;;;;5018170;28;20037;-73
2024/02/25 01:36:33;;;;;;;0.90;0.80;;;6.10;99.90;;;;;;5012850;28;20044;-73
2024/02/25 01:39:00;;;;;;;2.45;1.33;;;6.00;99.90;;;;;;5018458;28;20029;-73
2024/02/25 01:41:26;;;;;;;2.10;1.30;;;6.00;99.90;;;;;;5020616;28;20037;-73
2024/02/25 01:43:52;;;;;;;1.50;1.10;;;6.00;99.90;;;;;;5016164;28;20110;-73
2024/02/25 01:46:17;;;;;;;1.38;0.90;;;6.00;99.90;;;;;;5015716;28;20045;-72
2024/02/25 01:48:45;;;;;;;1.65;1.15;;;6.00;99.90;;;;;;5018992;28;20041;-72
2024/02/25 01:51:11;;;;;;;1.77;1.08;;;6.00;99.90;;;;;;5018108;28;20099;-72
2024/02/25 01:53:38;;;;;;;3.55;1.35;;;6.00;99.90;;;;;;5014512;28;20768;-72
2024/02/25 01:56:05;;;;;;;1.75;1.33;;;6.00;99.90;;;;;;5016536;28;20089;-73
2024/02/25 01:58:31;;;;;;;3.72;1.38;;;5.90;99.90;;;;;;5014762;28;20437;-73
2024/02/25 02:00:58;;;;;;;2.22;1.33;;;6.00;99.90;;;;;;5014891;28;20041;-73
2024/02/25 02:03:24;;;;;;;2.55;1.10;;;5.90;99.90;;;;;;5013573;28;20046;-73
2024/02/25 02:05:50;;;;;;;1.88;1.08;;;6.00;99.90;;;;;;5010982;28;20044;-73
2024/02/25 02:08:16;;;;;;;1.55;1.08;;;5.90;99.90;;;;;;5014302;28;20091;-72
2024/02/25 02:10:42;;;;;;;1.92;1.15;;;5.90;99.90;;;;;;5016904;28;20493;-73
2024/02/25 02:13:08;;;;;;;4.05;1.20;;;5.90;99.90;;;;;;5015252;28;20026;-72
2024/02/25 02:15:34;;;;;;;2.15;1.17;;;5.90;99.90;;;;;;5013344;28;20788;-75
2024/02/25 02:18:00;;;;;;;2.10;1.50;;;5.80;99.90;;;;;;5017064;28;20026;-73
2024/02/25 02:20:28;;;;;;;2.05;1.17;;;5.90;99.90;;;;;;5013166;28;20551;-73
2024/02/25 02:22:54;;;;;;;1.70;1.27;;;5.80;99.90;;;;;;5021324;28;20068;-73
2024/02/25 02:25:20;;;;;;;1.58;1.05;;;5.80;99.90;;;;;;5019814;28;20055;-73
2024/02/25 02:27:46;;;;;;;3.78;1.50;;;5.80;99.90;;;;;;5015719;28;20029;-73
2024/02/25 02:30:12;;;;;;;6.15;1.48;;;5.80;99.90;;;;;;5015922;28;20432;-73
2024/02/25 02:32:39;;;;;;;2.03;1.25;;;5.70;99.90;;;;;;5019721;28;20421;-73
2024/02/25 02:35:06;;;;;;;1.73;1.15;;;5.70;99.90;;;;;;5009242;28;20037;-73
2024/02/25 02:37:32;;;;;;;1.75;1.40;;;5.70;99.90;;;;;;5016364;28;20107;-73
2024/02/25 02:39:58;;;;;;;1.88;1.17;;;5.60;99.90;;;;;;5016737;28;20025;-73
2024/02/25 02:42:25;;;;;;;2.47;1.50;;;5.70;99.90;;;;;;5019510;28;20117;-73
2024/02/25 02:44:51;;;;;;;2.45;1.50;;;5.60;99.90;;;;;;5020063;28;20041;-73
2024/02/25 02:47:19;;;;;;;2.33;1.45;;;5.60;99.90;;;;;;5011546;28;20033;-73
2024/02/25 02:49:45;;;;;;;2.10;1.45;;;5.50;99.90;;;;;;5011126;28;20099;-72
2024/02/25 02:52:11;;;;;;;1.88;1.15;;;5.40;99.90;;;;;;5016442;28;20037;-73
2024/02/25 02:54:37;;;;;;;4.22;1.65;;;5.40;99.90;;;;;;5020043;28;20805;-73
2024/02/25 02:57:03;;;;;;;4.40;1.50;;;5.40;99.90;;;;;;5013359;28;20025;-72
2024/02/25 02:59:29;;;;;;;2.15;1.30;;;5.40;99.90;;;;;;5014337;28;20076;-72
2024/02/25 03:01:54;;;;;;;3.58;1.65;;;5.30;99.90;;;;;;5017690;28;20030;-73
2024/02/25 03:04:20;;;;;;;2.20;1.50;;;5.30;99.90;;;;;;5011809;28;20457;-72
2024/02/25 03:06:46;;;;;;;2.45;1.58;;;5.30;99.90;;;;;;5014592;28;21028;-72
2024/02/25 03:09:15;;;;;;;2.50;1.67;;;5.30;99.90;;;;;;5016432;28;20029;-73
2024/02/25 03:11:41;;;;;;;2.45;1.80;;;5.40;99.90;;;;;;5016052;28;20021;-72
2024/02/25 03:14:07;;;;;;;5.18;2.08;;;5.30;99.90;;;;;;5016754;28;20580;-72
2024/02/25 03:16:33;;;;;;;4.28;1.65;;;5.30;99.90;;;;;;5018580;28;20033;-72
2024/02/25 03:18:59;;;;;;;3.78;1.70;;;5.40;99.90;;;;;;5017575;28;20169;-72
2024/02/25 03:21:24;;;;;;;3.17;1.75;;;5.30;99.90;;;;;;5012533;28;20033;-73
2024/02/25 03:23:50;;;;;;;2.10;1.60;;;5.30;99.90;;;;;;5018041;28;20516;-72
2024/02/25 03:26:17;;;;;;;1.85;1.50;;;5.30;99.90;;;;;;5009802;28;20049;-72
2024/02/25 03:28:44;;;;;;;2.40;1.70;;;5.30;99.90;;;;;;5013372;28;20493;-72
2024/02/25 03:31:10;;;;;;;2.88;1.63;;;5.30;99.90;;;;;;5018247;28;20511;-72
2024/02/25 03:33:36;;;;;;;3.80;1.80;;;5.30;99.90;;;;;;5009783;28;20029;-72
2024/02/25 03:36:02;;;;;;;3.90;2.10;;;5.30;99.90;;;;;;5030230;28;20061;-73
2024/02/25 03:38:28;;;;;;;3.55;2.10;;;5.30;99.90;;;;;;5010744;28;20084;-73
2024/02/25 03:40:54;;;;;;;2.65;2.10;;;5.30;99.90;;;;;;5013633;28;20021;-73
2024/02/25 03:43:21;;;;;;;2.72;1.75;;;5.30;99.90;;;;;;5012463;28;20118;-73
2024/02/25 03:45:47;;;;;;;4.88;1.85;;;5.20;99.90;;;;;;5016580;28;20132;-73
2024/02/25 03:48:13;;;;;;;3.17;1.80;;;5.20;99.90;;;;;;5011004;28;20046;-73
2024/02/25 03:50:39;;;;;;;3.05;2.65;;;5.20;99.90;;;;;;5010116;28;20061;-73
2024/02/25 03:53:05;;;;;;;3.85;1.92;;;5.20;99.90;;;;;;5013118;28;20496;-73
2024/02/25 03:55:31;;;;;;;2.88;1.60;;;5.20;99.90;;;;;;5012908;28;20061;-73
2024/02/25 03:57:58;;;;;;;2.97;1.90;;;5.20;99.90;;;;;;5017787;28;20038;-73
2024/02/25 04:00:24;;;;;;;2.90;2.03;;;5.10;99.90;;;;;;5020765;28;20854;-73
2024/02/25 04:02:51;;;;;;;3.90;2.17;;;5.10;99.90;;;;;;5012596;28;20565;-73
2024/02/25 04:05:17;;;;;;;3.45;2.00;;;5.10;99.90;;;;;;5014385;28;20029;-73
2024/02/25 04:07:44;;;;;;;3.60;2.17;;;5.10;99.90;;;;;;5016058;28;20092;-73
2024/02/25 04:10:11;;;;;;;3.67;2.08;;;5.10;99.90;;;;;;5015884;28;20037;-73
2024/02/25 04:12:39;;;;;;;3.65;1.85;;;5.10;99.90;;;;;;5011781;28;20033;-73
2024/02/25 04:15:06;;;;;;;5.15;2.22;;;5.00;99.90;;;;;;5014779;28;20120;-73
2024/02/25 04:17:33;;;;;;;3.80;2.03;;;5.00;99.90;;;;;;5014984;28;20034;-73
2024/02/25 04:20:00;;;;;;;3.42;1.90;;;4.90;99.90;;;;;;5008994;28;20034;-73
2024/02/25 04:22:27;;;;;;;3.05;1.50;;;4.90;99.90;;;;;;5013362;28;20037;-73
2024/02/25 04:24:53;;;;;;;3.00;1.88;;;4.90;99.90;;;;;;5015875;28;20072;-73
2024/02/25 04:27:19;;;;;;;3.53;2.00;;;4.90;99.90;;;;;;5014850;28;20033;-73
2024/02/25 04:29:45;;;;;;;1.88;1.58;;;4.90;99.90;;;;;;5017049;28;20179;-73
2024/02/25 04:32:12;;;;;;;3.95;2.13;;;4.90;99.90;;;;;;5016237;28;20037;-73
2024/02/25 04:34:37;;;;;;;3.30;2.00;;;4.90;99.90;;;;;;5011235;28;20493;-72
2024/02/25 04:37:04;;;;;;;3.83;2.10;;;4.90;99.90;;;;;;5012546;28;20041;-73
2024/02/25 04:39:30;;;;;;;2.28;1.95;;;4.90;99.90;;;;;;5014298;28;20025;-73
2024/02/25 04:41:56;;;;;;;3.47;2.13;;;4.80;99.90;;;;;;5011594;28;20580;-73
2024/02/25 04:44:23;;;;;;;8.40;3.83;;;4.80;99.90;;;;;;5012670;28;20045;-72
2024/02/25 04:46:48;;;;;;;6.75;2.90;;;4.80;99.90;;;;;;5014663;28;20025;-73
2024/02/25 04:49:18;;;;;;;7.75;3.15;;;4.80;99.90;;;;;;5015945;28;20682;-73
2024/02/25 04:51:44;;;;;;;5.80;3.08;;;4.70;99.90;;;;;;5017335;28;20112;-73
2024/02/25 04:54:12;;;;;;;6.43;3.17;;;4.80;99.90;;;;;;5017286;28;20077;-72
2024/02/25 04:56:44;;;;;;;4.53;2.70;;;4.70;99.90;;;;;;5015805;28;20055;-73
2024/02/25 04:59:10;;;;;;;5.47;2.55;;;4.70;99.90;;;;;;5018447;28;20029;-73
2024/02/25 05:01:46;;;;;;;3.88;2.22;;;4.70;99.90;;;;;;5017606;28;20034;-73
2024/02/25 05:04:12;;;;;;;3.13;1.88;;;4.70;99.90;;;;;;5015292;28;20025;-73
2024/02/25 05:06:38;;;;;;;2.95;2.25;;;4.70;99.90;;;;;;5016646;28;20036;-73
2024/02/25 05:09:04;;;;;;;4.43;2.15;;;4.70;99.90;;;;;;5017842;28;20026;-72
2024/02/25 05:11:31;;;;;;;4.05;2.00;;;4.60;99.90;;;;;;5014060;28;20509;-73
2024/02/25 05:13:58;;;;;;;3.88;1.95;;;4.60;99.90;;;;;;5018734;28;20045;-73
2024/02/25 05:16:24;;;;;;;3.67;2.08;;;4.60;99.90;;;;;;5020031;28;20033;-73
2024/02/25 05:18:50;;;;;;;2.55;1.90;;;4.70;99.90;;;;;;5018042;28;20038;-73
2024/02/25 05:21:16;;;;;;;4.38;1.80;;;4.70;99.90;;;;;;5022488;28;20025;-73
2024/02/25 05:23:41;;;;;;;4.75;2.63;;;4.70;99.90;;;;;;5020053;28;20060;-73
2024/02/25 05:26:07;;;;;;;3.25;2.13;;;4.70;99.90;;;;;;5013892;28;20065;-73
2024/02/25 05:28:34;;;;;;;2.00;1.67;;;4.70;99.90;;;;;;5016224;28;20052;-73
2024/02/25 05:31:00;;;;;;;3.38;2.03;;;4.60;99.90;;;;;;5014385;28;20038;-73
2024/02/25 05:33:26;;;;;;;3.33;1.83;;;4.60;99.90;;;;;;5011556;28;20069;-73
2024/02/25 05:35:53;;;;;;;3.08;1.90;;;4.60;99.90;;;;;;5012048;28;20029;-73
2024/02/25 05:38:19;;;;;;;3.50;1.95;;;4.60;99.90;;;;;;5013042;28;20062;-73
2024/02/25 05:40:44;;;;;;;4.72;2.20;;;4.60;99.90;;;;;;5012466;28;20112;-73
2024/02/25 05:43:10;;;;;;;3.90;2.03;;;4.60;99.90;;;;;;5014967;28;20033;-73
2024/02/25 05:45:36;;;;;;;3.42;1.85;;;4.60;99.90;;;;;;5017619;28;20878;-73
2024/02/25 05:48:02;;;;;;;2.92;2.10;;;4.60;99.90;;;;;;5010409;28;20029;-73
2024/02/25 05:50:28;;;;;;;3.22;2.30;;;4.70;99.90;;;;;;5013441;28;20025;-73
2024/02/25 05:52:54;;;;;;;1.98;1.75;;;4.60;99.90;;;;;;5014388;28;20478;-73
2024/02/25 05:55:20;;;;;;;4.18;1.83;;;4.60;99.90;;;;;;5011289;28;20060;-73
2024/02/25 05:57:46;;;;;;;3.72;2.05;;;4.60;99.90;;;;;;5030504;28;20748;-73
2024/02/25 06:00:13;;;;;;;4.70;2.53;;;4.70;99.90;;;;;;5013366;28;20091;-73
2024/02/25 06:02:45;;;;;;;3.45;2.28;;;4.70;99.90;;;;;;5011188;28;20037;-73
2024/02/25 06:05:17;;;;;;;4.22;2.20;;;4.60;99.90;;;;;;5010175;28;20034;-73
2024/02/25 06:07:44;;;;;;;4.20;2.50;;;4.60;99.90;;;;;;5012243;28;20042;-73
2024/02/25 06:10:10;;;;;;;3.13;2.15;;;4.60;99.90;;;;;;5010851;28;20401;-73
2024/02/25 06:12:38;;;;;;;3.35;2.13;;;4.60;99.90;;;;;;5015509;28;20053;-73
2024/02/25 06:15:11;;;;;;;4.30;2.85;;;4.70;99.90;;;;;;5013746;28;20037;-73
2024/02/25 06:17:41;;;;;;;4.18;2.40;;;4.70;99.90;;;;;;5009918;28;20034;-73
2024/02/25 06:20:09;;;;;;;3.72;2.53;;;4.70;99.90;;;;;;5012855;28;20578;-73
2024/02/25 06:22:40;;;;;;;3.42;1.85;;;4.70;99.90;;;;;;5010457;28;20101;-73
2024/02/25 06:25:06;;;;;;;3.65;2.13;;;4.70;99.90;;;;;;5010293;28;20072;-73
2024/02/25 06:27:36;;;;;;;3.47;1.98;;;4.70;99.90;;;;;;5014961;28;20113;-73
2024/02/25 06:30:06;;;;;;;2.92;1.90;;;4.60;99.90;;;;;;5013629;28;20056;-73
2024/02/25 06:32:32;;;;;;;4.10;2.47;;;4.60;99.90;;;;;;5009697;28;20033;-73
2024/02/25 06:34:58;;;;;;;2.92;1.98;;;4.60;99.90;;;;;;5010980;28;20037;-73
2024/02/25 06:37:28;;;;;;;3.92;2.03;;;4.60;99.90;;;;;;5010416;28;20030;-73
2024/02/25 06:39:54;;;;;;;2.60;1.80;;;4.60;99.90;;;;;;5010318;28;20103;-73
2024/02/25 06:42:20;;;;;;;5.85;2.47;;;4.50;99.90;;;;;;5014039;28;20033;-73
2024/02/25 06:44:46;;;;;;;2.38;1.75;;;4.60;99.90;;;;;;5015845;28;20045;-73
2024/02/25 06:47:12;;;;;;;2.67;1.90;;;4.60;99.90;;;;;;5010684;28;20088;-73
2024/02/25 06:49:40;;;;;;;3.35;1.90;;;4.70;99.90;;;;;;5012965;28;20199;-73
2024/02/25 06:52:06;;;;;;;2.97;1.85;;;4.70;99.90;;;;;;5012098;28;20049;-73
2024/02/25 06:54:32;;;;;;;3.67;2.30;;;4.60;99.90;;;;;;5011591;28;20030;-73
2024/02/25 06:56:58;;;;;;;3.63;2.13;;;4.60;99.90;;;;;;5014627;28;20034;-73
2024/02/25 06:59:24;;;;;;;3.15;1.95;;;4.60;99.90;;;;;;5011578;28;20422;-74
2024/02/25 07:01:50;;;;;;;3.25;2.05;;;4.60;99.90;;;;;;5009679;28;20402;-73
2024/02/25 07:04:16;;;;;;;2.67;2.03;;;4.60;99.90;;;;;;5011928;28;20033;-73
2024/02/25 07:06:42;;;;;;;3.65;2.17;;;4.70;99.90;;;;;;5010510;28;20026;-73
2024/02/25 07:09:08;;;;;;;3.25;2.22;;;4.60;99.90;;;;;;5010008;28;20026;-73
2024/02/25 07:11:34;;;;;;;3.17;2.10;;;4.60;99.90;;;;;;5013201;28;20120;-73
2024/02/25 07:14:00;;;;;;;3.28;2.15;;;4.70;99.90;;;;;;5011022;28;20036;-73
2024/02/25 07:16:26;;;;;;;2.75;1.77;;;4.70;99.90;;;;;;5009815;28;20839;-73
2024/02/25 07:18:52;;;;;;;3.85;2.10;;;4.70;99.90;;;;;;5010368;28;20033;-73
2024/02/25 07:21:18;;;;;;;3.70;2.20;;;4.70;99.90;;;;;;5010802;28;20099;-73
2024/02/25 07:23:44;;;;;;;3.35;2.00;;;4.70;99.90;;;;;;5010646;28;20504;-73
2024/02/25 07:26:12;;;;;;;3.20;1.92;;;4.70;99.90;;;;;;5012764;28;20033;-73
2024/02/25 07:28:41;;;;;;;3.20;2.08;;;4.80;99.90;;;;;;5012743;28;20056;-74
2024/02/25 07:31:18;;;;;;;2.78;1.95;;;4.90;99.90;;;;;;5007557;28;20065;-73
2024/02/25 07:33:45;;;;;;;3.97;1.90;;;4.90;99.90;;;;;;5010644;28;20042;-74
2024/02/25 07:36:12;;;;;;;3.63;2.10;;;4.90;99.90;;;;;;5011024;28;20399;-74
2024/02/25 07:38:39;;;;;;;3.55;1.85;;;4.90;99.90;;;;;;4985782;28;20025;-74
2024/02/25 07:41:06;;;;;;;2.42;1.90;;;5.00;99.90;;;;;;5008830;28;20025;-75
2024/02/25 07:43:36;;;;;;;2.55;1.70;;;5.10;99.90;;;;;;5012505;28;20691;-75
2024/02/25 07:46:03;;;;;;;3.03;1.88;;;5.10;99.90;;;;;;5008171;28;20039;-75
2024/02/25 07:48:30;;;;;;;2.42;1.88;;;5.20;99.90;;;;;;5010898;28;20483;-75
2024/02/25 07:50:56;;;;;;;4.03;1.92;;;5.30;99.90;;;;;;5011549;28;20540;-68
2024/02/25 07:53:22;;;;;;;2.10;1.60;;;5.30;99.90;;;;;;5008548;28;20034;-75
2024/02/25 07:55:48;;;;;;;2.97;1.95;;;5.40;99.90;;;;;;5012933;28;20029;-75
2024/02/25 07:58:14;;;;;;;3.90;2.03;;;5.40;99.90;;;;;;5012398;28;20084;-74
2024/02/25 08:00:41;;;;;;;2.30;1.85;;;5.50;99.90;;;;;;5012919;28;20025;-78
2024/02/25 08:03:06;;;;;;;1.67;1.33;;;5.90;99.90;;;;;;5014384;28;20068;-77
2024/02/25 08:05:32;;;;;;;2.60;1.67;;;6.10;99.90;;;;;;5011925;28;20052;-75
2024/02/25 08:07:58;;;;;;;3.90;1.88;;;6.40;99.90;;;;;;5010994;28;20038;-73
2024/02/25 08:10:24;;;;;;;4.88;1.90;;;6.60;99.90;;;;;;5013695;28;20056;-73
2024/02/25 08:12:54;;;;;;;3.35;2.30;;;6.60;99.90;;;;;;5006235;28;20037;-76
2024/02/25 08:15:20;;;;;;;6.15;2.35;;;6.60;99.90;;;;;;4999234;28;20092;-77
2024/02/25 08:17:46;;;;;;;2.30;1.65;;;6.70;99.90;;;;;;5010339;28;20113;-75
2024/02/25 08:20:12;;;;;;;6.70;2.65;;;6.80;99.90;;;;;;5011868;28;20818;-75
2024/02/25 08:22:39;;;;;;;3.50;1.63;;;6.90;99.90;;;;;;5011143;28;20040;-75
2024/02/25 08:25:05;;;;;;;2.45;1.90;;;7.20;99.90;;;;;;5004925;28;20064;-69
2024/02/25 08:27:32;;;;;;;3.88;1.95;;;7.50;99.90;;;;;;5012123;28;20038;-72
2024/02/25 08:30:02;;;;;;;4.00;1.83;;;7.70;99.90;;;;;;5007890;28;20029;-71
2024/02/25 08:32:28;;;;;;;2.42;1.45;;;7.80;99.90;;;;;;5007180;28;20068;-71
2024/02/25 08:34:54;;;;;;;3.50;2.30;;;7.90;99.90;;;;;;5007931;28;20160;-71
2024/02/25 08:37:25;;;;;;;3.80;2.00;;;7.90;99.90;;;;;;5006597;28;20045;-71
2024/02/25 08:39:51;;;;;;;2.58;1.95;;;8.10;99.90;;;;;;5010066;28;20037;-71
2024/02/25 08:42:18;;;;;;;2.45;1.80;;;8.20;99.90;;;;;;5027109;28;20807;-71
2024/02/25 08:44:45;;;;;;;3.78;2.03;;;8.10;99.90;;;;;;5008513;28;20882;-71
2024/02/25 08:47:10;;;;;;;4.28;2.20;;;8.20;99.90;;;;;;5008599;28;20041;-73
2024/02/25 08:49:39;;;;;;;3.72;2.10;;;8.20;99.90;;;;;;5011261;28;20034;-69
2024/02/25 08:52:05;;;;;;;3.42;2.13;;;8.20;99.90;;;;;;5005684;28;20029;-69
2024/02/25 08:54:33;;;;;;;2.55;1.80;;;8.20;99.90;;;;;;5011897;28;20080;-70
2024/02/25 08:56:59;;;;;;;3.00;1.75;;;8.10;99.90;;;;;;5010726;28;20042;-73
2024/02/25 08:59:25;;;;;;;2.45;1.65;;;7.90;99.90;;;;;;5020269;28;20021;-72
2024/02/25 09:01:52;;;;;;;2.53;1.70;;;7.90;99.90;;;;;;5011252;28;20511;-73
2024/02/25 09:04:18;;;;;;;4.22;1.90;;;8.00;99.90;;;;;;5010875;28;20757;-73
2024/02/25 09:06:44;;;;;;;3.08;1.77;;;8.00;99.90;;;;;;5009084;28;20104;-73
2024/02/25 09:09:10;;;;;;;2.97;2.00;;;8.00;99.90;;;;;;5011448;28;20029;-73
2024/02/25 09:11:36;;;;;;;2.92;1.90;;;8.10;99.90;;;;;;5013673;28;20022;-72
2024/02/25 09:14:02;;;;;;;3.83;2.00;;;8.30;99.90;;;;;;5006779;28;20777;-72
2024/02/25 09:16:28;;;;;;;3.60;1.90;;;8.90;99.90;;;;;;5009654;28;20034;-72
2024/02/25 09:18:54;;;;;;;3.67;1.77;;;9.70;99.90;;;;;;5008194;28;20033;-73
2024/02/25 09:21:20;;;;;;;4.28;2.13;;;10.10;99.90;;;;;;5007125;28;20037;-73
2024/02/25 09:23:46;;;;;;;2.83;1.63;;;10.40;99.60;;;;;;5010818;28;20052;-73
2024/02/25 09:26:13;;;;;;;3.78;1.80;;;10.60;99.70;;;;;;5013296;28;20029;-73
2024/02/25 09:28:39;;;;;;;2.47;2.05;;;11.00;98.40;;;;;;5008033;28;20022;-73
2024/02/25 09:31:05;;;;;;;3.60;1.95;;;11.40;98.20;;;;;;5008281;28;20026;-73
2024/02/25 09:33:32;;;;;;;4.32;1.48;;;11.40;96.80;;;;;;5010070;28;20111;-73
2024/02/25 09:35:58;;;;;;;1.70;1.60;;;11.20;97.60;;;;;;5008243;28;20046;-74
2024/02/25 09:38:27;;;;;;;3.03;1.80;;;11.00;97.50;;;;;;5012062;28;20041;-73
2024/02/25 09:41:01;;;;;;;2.42;1.83;;;10.80;97.90;;;;;;5014995;28;20063;-72
2024/02/25 09:43:27;;;;;;;4.30;2.03;;;10.60;98.90;;;;;;5009817;28;20064;-73
2024/02/25 09:45:56;;;;;;;2.25;1.67;;;10.40;99.70;;;;;;5013285;28;20033;-74
2024/02/25 09:48:23;;;;;;;5.57;2.05;;;10.70;99.70;;;;;;5012315;28;20057;-74
2024/02/25 09:50:53;;;;;;;2.53;1.73;;;10.70;98.40;;;;;;5010742;28;20034;-74
2024/02/25 09:53:22;;;;;;;2.95;1.55;;;11.20;99.10;;;;;;5014687;28;20037;-74
2024/02/25 09:55:49;;;;;;;1.83;1.50;;;11.60;97.40;;;;;;5015157;28;20481;-74
2024/02/25 09:58:18;;;;;;;2.20;1.38;;;12.00;97.20;;;;;;5011751;28;21614;-74
2024/02/25 10:00:44;;;;;;;2.38;2.03;;;12.50;95.10;;;;;;5013821;28;20030;-73
2024/02/25 10:03:13;;;;;;;2.92;1.58;;;13.00;94.90;;;;;;5013756;28;20030;-73
2024/02/25 10:05:42;;;;;;;1.58;1.38;;;13.40;93.60;;;;;;5011818;28;20535;-73
2024/02/25 10:08:12;;;;;;;2.55;1.30;;;13.70;92.60;;;;;;5010778;28;20033;-73
2024/02/25 10:10:41;;;;;;;2.10;1.60;;;13.70;90.40;;;;;;5014873;28;20038;-73
2024/02/25 10:13:08;;;;;;;2.20;1.45;;;13.60;90.80;;;;;;5010084;28;20029;-73
2024/02/25 10:15:34;;;;;;;2.10;1.38;;;13.60;91.30;;;;;;5011592;28;20100;-73
2024/02/25 10:18:00;;;;;;;1.77;1.30;;;14.50;90.00;;;;;;5012883;28;20503;-74
2024/02/25 10:20:26;;;;;;;2.85;1.60;;;15.70;86.20;;;;;;5011959;28;20164;-73
2024/02/25 10:23:11;;;;;;;2.25;1.30;;;15.80;79.80;;;;;;5013121;28;20029;-74
2024/02/25 10:25:41;;;;;;;3.33;1.40;;;15.80;80.40;;;;;;5016261;28;20608;-73
2024/02/25 10:28:17;;;;;;;1.85;1.02;;;15.80;77.10;;;;;;5009910;28;20823;-73
2024/02/25 10:30:59;;;;;;;2.38;1.15;;;16.00;75.60;;;;;;5014316;28;20171;-73
2024/02/25 10:33:25;;;;;;;1.27;1.00;;;16.10;74.60;;;;;;5012706;28;20140;-74
2024/02/25 10:35:53;;;;;;;7.50;1.75;;;16.40;72.50;;;;;;5009634;28;20030;-75
2024/02/25 10:38:21;;;;;;;2.50;1.38;;;16.40;71.80;;;;;;5024421;28;20565;-75
2024/02/25 10:40:47;;;;;;;2.28;1.20;;;16.90;71.90;;;;;;5012803;28;20057;-75
2024/02/25 10:43:14;;;;;;;1.42;1.17;;;16.80;69.10;;;;;;5013466;28;20056;-74
2024/02/25 10:45:44;;;;;;;1.25;1.00;;;17.70;68.60;;;;;;5013897;28;20040;-74
2024/02/25 10:48:11;;;;;;;1.58;0.88;;;18.00;66.10;;;;;;5010702;28;20099;-74
2024/02/25 10:50:38;;;;;;;2.00;0.95;;;17.00;65.30;;;;;;5014031;28;20034;-75
2024/02/25 10:53:06;;;;;;;0.93;0.77;;;18.40;62.80;;;;;;5014792;28;20516;-74
2024/02/25 10:55:33;;;;;;;1.50;0.90;;;19.20;59.00;;;;;;5012912;28;20040;-74
2024/02/25 10:58:01;;;;;;;1.73;1.15;;;19.30;59.40;;;;;;5010998;28;20036;-75
2024/02/25 11:00:27;;;;;;;1.02;0.70;;;20.10;58.70;;;;;;5009691;28;20037;-73
2024/02/25 11:02:54;;;;;;;2.20;0.85;;;19.80;55.60;;;;;;5015900;28;20029;-74
2024/02/25 11:05:20;;;;;;;1.25;0.73;;;19.60;55.40;;;;;;5009225;28;20042;-74
2024/02/25 11:07:47;;;;;;;1.45;0.93;;;20.00;54.90;;;;;;5016098;28;20033;-73
2024/02/25 11:10:20;;;;;;;0.93;0.63;;;19.80;54.90;;;;;;5013025;28;20037;-73
2024/02/25 11:12:48;;;;;;;2.22;0.90;;;20.30;53.50;;;;;;5009864;28;20409;-73
2024/02/25 11:15:21;;;;;;;1.30;0.80;;;19.80;53.50;;;;;;5011474;28;20042;-74
2024/02/25 11:17:51;;;;;;;1.00;0.70;;;19.70;54.50;;;;;;5012853;28;20040;-73
2024/02/25 11:20:28;;;;;;;1.50;0.85;;;19.80;53.00;;;;;;5010711;28;20045;-73
2024/02/25 11:22:55;;;;;;;3.17;1.50;;;19.50;54.10;;;;;;5014116;28;20503;-73
2024/02/25 11:25:29;;;;;;;1.17;0.90;;;19.40;52.90;;;;;;5011197;28;20038;-72
2024/02/25 11:28:03;;;;;;;2.00;0.98;;;18.30;55.60;;;;;;5011468;28;20044;-72
2024/02/25 11:30:37;;;;;;;1.60;0.95;;;17.20;58.30;;;;;;5011709;28;20492;-72
2024/02/25 11:33:23;;;;;;;2.42;0.88;;;15.80;61.90;;;;;;5010105;28;20042;-73
2024/02/25 11:35:57;;;;;;;0.98;0.90;;;14.80;65.20;;;;;;5011389;28;20026;-72
2024/02/25 11:38:27;;;;;;;2.03;0.75;;;14.10;66.10;;;;;;5013715;28;20567;-72
2024/02/25 11:40:55;;;;;;;1.17;1.08;;;13.80;65.80;;;;;;5008856;28;20425;-72
2024/02/25 11:43:22;;;;;;;2.10;0.80;;;13.60;67.90;;;;;;5008552;28;20031;-72
2024/02/25 11:45:48;;;;;;;1.10;0.70;;;13.50;69.50;;;;;;5012748;28;20033;-72
2024/02/25 11:48:15;;;;;;;1.05;0.70;;;13.50;69.40;;;;;;5008172;28;20060;-71
2024/02/25 11:50:42;;;;;;;2.42;0.98;;;13.40;70.90;;;;;;5013351;28;20037;-72
2024/02/25 11:53:08;;;;;;;2.42;1.30;;;13.30;69.00;;;;;;5014085;28;20104;-72
2024/02/25 11:55:35;;;;;;;1.58;0.40;;;13.30;67.90;;;;;;5009590;28;20496;-72
2024/02/25 11:58:01;;;;;;;1.55;0.60;;;13.40;68.50;;;;;;5010542;28;20129;-72
2024/02/25 12:00:28;;;;;;;1.65;0.60;;;13.20;69.40;;;;;;5011808;28;20057;-72
2024/02/25 12:02:54;;;;;;;1.20;0.70;;;13.20;71.80;;;;;;5008465;28;20059;-72
2024/02/25 12:05:20;;;;;;;2.83;1.10;;;13.30;68.60;;;;;;5009557;28;20732;-72
2024/02/25 12:07:56;;;;;;;2.08;1.13;;;13.30;69.70;;;;;;5011681;28;20065;-72
2024/02/25 12:10:26;;;;;;;0.80;0.55;;;13.40;70.00;;;;;;5008955;28;20034;-72
2024/02/25 12:12:53;;;;;;;3.72;1.42;;;13.40;67.10;;;;;;5009324;28;20107;-73
2024/02/25 12:15:24;;;;;;;1.13;0.57;;;13.50;69.20;;;;;;5012264;28;20065;-72
2024/02/25 12:17:51;;;;;;;1.08;0.50;;;13.20;67.80;;;;;;5009665;28;20025;-72
2024/02/25 12:20:19;;;;;;;2.15;0.60;;;13.10;67.40;;;;;;5011234;28;20075;-72
2024/02/25 12:22:45;;;;;;;1.13;0.60;;;13.20;68.00;;;;;;5014849;28;20029;-72
2024/02/25 12:25:18;;;;;;;0.70;0.45;;;13.00;66.60;;;;;;5008906;28;20538;-72
2024/02/25 12:27:48;;;;;;;1.02;0.70;;;13.10;70.70;;;;;;5011640;28;20208;-72
2024/02/25 12:30:14;;;;;;;0.70;0.50;;;13.10;70.60;;;;;;5012367;28;20041;-72
2024/02/25 12:32:41;;;;;;;1.33;0.52;;;13.10;68.70;;;;;;5009834;28;20033;-72
2024/02/25 12:35:08;;;;;;;0.63;0.52;;;13.00;66.40;;;;;;5009279;28;20087;-72
2024/02/25 12:37:34;;;;;;;1.10;0.65;;;13.00;69.50;;;;;;5013189;28;20618;-72
2024/02/25 12:40:00;;;;;;;1.13;0.47;;;13.00;67.40;;;;;;5009110;28;20038;-72
2024/02/25 12:42:29;;;;;;;2.33;0.77;;;13.00;67.80;;;;;;5010472;28;20045;-72
2024/02/25 12:44:55;;;;;;;0.93;0.50;;;13.20;67.10;;;;;;5010765;28;20036;-72
2024/02/25 12:47:21;;;;;;;0.63;0.50;;;13.10;67.80;;;;;;5008413;28;20510;-72
2024/02/25 12:49:51;;;;;;;0.60;0.35;;;13.00;69.40;;;;;;5012398;28;20463;-73
2024/02/25 12:52:18;;;;;;;0.65;0.60;;;13.00;69.60;;;;;;5013606;28;20213;-72
2024/02/25 12:54:45;;;;;;;1.50;0.47;;;12.90;68.80;;;;;;5009759;28;20552;-72